createdAt,value
2019-04-11T00:00:26.322Z,98809.72
2019-04-11T00:02:55.273Z,98805.81
2019-04-11T00:05:23.629Z,98803.83
2019-04-11T00:07:52.226Z,98804.13
2019-04-11T00:10:20.801Z,98804.67
2019-04-11T00:12:49.061Z,98807.86
2019-04-11T00:15:18.190Z,98807.91
2019-04-11T00:17:46.433Z,98812.29
2019-04-11T00:20:15.984Z,98811.67
2019-04-11T00:22:44.294Z,98804.83
2019-04-11T00:25:13.581Z,98811.23
2019-04-11T00:27:41.921Z,98812.70
2019-04-11T00:30:12.175Z,98812.17
2019-04-11T00:32:39.851Z,98812.66
2019-04-11T00:35:09.239Z,98813.80
2019-04-11T00:37:37.556Z,98820.00
2019-04-11T00:40:06.856Z,98829.03
2019-04-11T00:42:35.141Z,98820.53
2019-04-11T00:45:03.445Z,98822.48
2019-04-11T00:47:33.159Z,98815.62
2019-04-11T00:50:01.573Z,98828.76
2019-04-11T00:52:29.825Z,98825.40
2019-04-11T00:54:58.077Z,98824.47
2019-04-11T00:57:26.348Z,98822.72
2019-04-11T00:59:54.602Z,98819.31
2019-04-11T01:02:23.185Z,98826.33
2019-04-11T01:04:52.889Z,98822.56
2019-04-11T01:07:21.337Z,98830.91
2019-04-11T01:09:50.611Z,98826.57
2019-04-11T01:12:19.112Z,98822.73
2019-04-11T01:14:47.358Z,98824.80
2019-04-11T01:17:15.632Z,98829.06
2019-04-11T01:19:43.888Z,98831.89
2019-04-11T01:22:12.735Z,98836.74
2019-04-11T01:24:42.265Z,98837.83
2019-04-11T01:27:10.537Z,98830.00
2019-04-11T01:29:39.777Z,98839.84
2019-04-11T01:32:12.371Z,98837.44
2019-04-11T01:34:40.620Z,98837.47
2019-04-11T01:37:09.265Z,98838.17
2019-04-11T01:42:38.256Z,98834.34
2019-04-11T01:45:07.821Z,98840.27
2019-04-11T01:47:40.537Z,98840.02
2019-04-11T01:50:09.068Z,98845.91
2019-04-11T01:52:38.296Z,98849.20
2019-04-11T01:55:08.245Z,98846.70
2019-04-11T01:57:36.695Z,98851.59
2019-04-11T02:00:06.008Z,98852.56
2019-04-11T02:02:36.852Z,98852.42
2019-04-11T02:05:27.143Z,98848.31
2019-04-11T02:07:55.328Z,98849.72
2019-04-11T02:10:24.471Z,98850.11
2019-04-11T02:12:53.277Z,98853.39
2019-04-11T02:15:24.008Z,98854.66
2019-04-11T02:17:52.409Z,98854.39
2019-04-11T02:20:20.893Z,98852.11
2019-04-11T02:22:56.943Z,98857.91
2019-04-11T02:25:37.269Z,98851.96
2019-04-11T02:28:07.125Z,98855.42
2019-04-11T02:30:39.324Z,98857.28
2019-04-11T02:33:09.410Z,98860.53
2019-04-11T02:35:37.328Z,98859.56
2019-04-11T02:38:07.651Z,98866.97
2019-04-11T02:40:36.818Z,98863.14
2019-04-11T02:43:07.097Z,98866.91
2019-04-11T02:45:49.703Z,98870.37
2019-04-11T02:48:09.261Z,98865.81
2019-04-11T02:50:38.661Z,98868.81
2019-04-11T02:53:07.309Z,98873.31
2019-04-11T02:55:37.754Z,98874.17
2019-04-11T02:58:07.711Z,98879.91
2019-04-11T03:00:37.667Z,98873.16
2019-04-11T03:03:08.452Z,98875.64
2019-04-11T03:05:37.524Z,98870.02
2019-04-11T03:08:11.185Z,98871.48
2019-04-11T03:10:37.752Z,98874.84
2019-04-11T03:13:06.476Z,98877.16
2019-04-11T03:15:48.328Z,98880.23
2019-04-11T03:18:09.105Z,98882.24
2019-04-11T03:20:44.921Z,98872.86
2019-04-11T03:23:07.862Z,98881.11
2019-04-11T03:25:36.288Z,98878.23
2019-04-11T03:28:05.549Z,98879.45
2019-04-11T03:30:57.507Z,98878.27
2019-04-11T03:36:27.457Z,98886.27
2019-04-11T03:38:30.897Z,98888.63
2019-04-11T03:40:59.605Z,98887.34
2019-04-11T03:43:23.118Z,98884.20
2019-04-11T03:45:52.597Z,98887.02
2019-04-11T03:48:23.698Z,98886.02
2019-04-11T03:50:38.230Z,98890.16
2019-04-11T03:53:07.122Z,98893.27
2019-04-11T03:55:36.888Z,98890.69
2019-04-11T03:58:06.191Z,98894.19
2019-04-11T04:00:37.283Z,98896.16
2019-04-11T04:03:06.243Z,98894.25
2019-04-11T04:05:36.747Z,98902.23
2019-04-11T04:08:06.130Z,98907.01
2019-04-11T04:10:36.308Z,98909.34
2019-04-11T04:13:05.490Z,98911.66
2019-04-11T04:15:53.769Z,98908.84
2019-04-11T04:18:19.368Z,98915.02
2019-04-11T04:21:07.005Z,98914.19
2019-04-11T04:23:38.004Z,98921.76
2019-04-11T04:26:08.473Z,98918.97
2019-04-11T04:28:38.062Z,98926.37
2019-04-11T04:31:06.892Z,98923.38
2019-04-11T04:33:38.424Z,98927.33
2019-04-11T04:36:10.404Z,98929.75
2019-04-11T04:38:37.715Z,98929.75
2019-04-11T04:41:18.857Z,98933.59
2019-04-11T04:43:38.729Z,98930.62
2019-04-11T04:46:23.087Z,98934.26
2019-04-11T04:48:38.300Z,98942.41
2019-04-11T04:51:10.867Z,98941.87
2019-04-11T04:53:39.027Z,98943.10
2019-04-11T04:56:09.041Z,98950.27
2019-04-11T04:58:37.943Z,98951.72
2019-04-11T05:01:07.089Z,98953.99
2019-04-11T05:03:35.594Z,98958.13
2019-04-11T05:06:04.325Z,98957.80
2019-04-11T05:08:32.764Z,98962.88
2019-04-11T05:11:02.197Z,98966.98
2019-04-11T05:13:32.194Z,98965.55
2019-04-11T05:16:08.549Z,98965.91
2019-04-11T05:18:30.725Z,98966.02
2019-04-11T05:20:59.552Z,98962.66
2019-04-11T05:23:27.823Z,98968.66
2019-04-11T05:25:57.139Z,98970.13
2019-04-11T05:28:25.559Z,98976.02
2019-04-11T05:30:53.789Z,98977.80
2019-04-11T05:33:23.148Z,98974.80
2019-04-11T05:35:52.119Z,98983.82
2019-04-11T05:38:20.941Z,98982.23
2019-04-11T05:40:50.320Z,98985.28
2019-04-11T05:43:19.649Z,98986.30
2019-04-11T05:45:53.629Z,98993.93
2019-04-11T05:48:37.431Z,98993.19
2019-04-11T05:51:06.841Z,98995.09
2019-04-11T05:53:36.999Z,98999.91
2019-04-11T05:56:07.089Z,99000.73
2019-04-11T05:58:45.125Z,99000.96
2019-04-11T06:01:27.972Z,99001.38
2019-04-11T06:04:00.351Z,99005.48
2019-04-11T06:06:34.312Z,99005.81
2019-04-11T06:09:02.412Z,99007.19
2019-04-11T06:11:52.182Z,99004.37
2019-04-11T06:14:20.922Z,99000.96
2019-04-11T06:16:55.282Z,99007.84
2019-04-11T06:19:22.920Z,99013.52
2019-04-11T06:21:52.841Z,99017.55
2019-04-11T06:24:38.924Z,99014.55
2019-04-11T06:27:09.308Z,99021.14
2019-04-11T06:29:43.140Z,99023.16
2019-04-11T06:32:22.054Z,99026.53
2019-04-11T06:34:51.970Z,99027.32
2019-04-11T06:37:41.568Z,99027.80
2019-04-11T06:40:14.309Z,99027.39
2019-04-11T06:42:44.212Z,99032.63
2019-04-11T06:45:20.272Z,99033.06
2019-04-11T06:47:56.950Z,99034.53
2019-04-11T06:50:39.904Z,99034.75
2019-04-11T06:53:08.971Z,99039.46
2019-04-11T06:55:42.664Z,99041.78
2019-04-11T06:58:12.979Z,99040.74
2019-04-11T07:00:43.215Z,99040.55
2019-04-11T07:03:19.787Z,99033.05
2019-04-11T07:05:42.746Z,99044.70
2019-04-11T07:08:11.060Z,99042.88
2019-04-11T07:13:45.471Z,99047.74
2019-04-11T07:16:15.249Z,99055.24
2019-04-11T07:19:02.753Z,99056.52
2019-04-11T07:21:33.278Z,99055.67
2019-04-11T07:24:18.867Z,99060.67
2019-04-11T07:26:48.182Z,99054.75
2019-04-11T07:29:34.099Z,99058.92
2019-04-11T07:32:06.469Z,99056.14
2019-04-11T07:34:43.687Z,99055.66
2019-04-11T07:37:14.929Z,99060.93
2019-04-11T07:39:56.891Z,99058.28
2019-04-11T07:42:43.480Z,99059.52
2019-04-11T07:45:29.913Z,99070.42
2019-04-11T07:48:07.192Z,99061.52
2019-04-11T07:50:35.530Z,99065.14
2019-04-11T07:53:06.193Z,99065.73
2019-04-11T07:55:34.960Z,99068.85
2019-04-11T07:58:06.413Z,99071.33
2019-04-11T08:00:44.749Z,99075.05
2019-04-11T08:03:23.491Z,99075.73
2019-04-11T08:05:59.156Z,99075.16
2019-04-11T08:08:32.413Z,99084.58
2019-04-11T08:11:11.502Z,99087.03
2019-04-11T08:13:41.515Z,99086.86
2019-04-11T08:16:29.017Z,99087.02
2019-04-11T08:19:05.536Z,99087.90
2019-04-11T08:21:44.273Z,99092.91
2019-04-11T08:24:18.427Z,99087.06
2019-04-11T08:26:58.810Z,99084.95
2019-04-11T08:29:28.646Z,99089.62
2019-04-11T08:32:02.612Z,99091.03
2019-04-11T08:34:32.576Z,99090.09
2019-04-11T08:37:19.337Z,99095.31
2019-04-11T08:39:49.711Z,99093.36
2019-04-11T08:42:38.987Z,99094.55
2019-04-11T08:45:09.455Z,99106.10
2019-04-11T08:47:49.245Z,99095.16
2019-04-11T08:50:17.159Z,99098.42
2019-04-11T08:52:47.088Z,99102.81
2019-04-11T08:55:17.291Z,99104.16
2019-04-11T08:57:47.936Z,99106.19
2019-04-11T09:00:17.828Z,99105.53
2019-04-11T09:02:49.121Z,99102.14
2019-04-11T09:05:35.327Z,99106.19
2019-04-11T09:08:25.076Z,99112.61
2019-04-11T09:11:04.543Z,99105.67
2019-04-11T09:13:44.014Z,99102.80
2019-04-11T09:16:30.245Z,99101.79
2019-04-11T09:19:11.991Z,99106.66
2019-04-11T09:21:58.918Z,99102.64
2019-04-11T09:24:34.694Z,99091.14
2019-04-11T09:27:20.855Z,99103.45
2019-04-11T09:30:04.439Z,99101.02
2019-04-11T09:32:37.450Z,99097.23
2019-04-11T09:35:24.487Z,99098.08
2019-04-11T09:37:53.759Z,99093.67
2019-04-11T09:40:39.685Z,99095.39
2019-04-11T09:43:15.980Z,99093.33
2019-04-11T09:45:52.596Z,99091.30
2019-04-11T09:48:39.985Z,99088.94
2019-04-11T09:51:18.996Z,99091.98
2019-04-11T09:54:08.531Z,99094.66
2019-04-11T09:56:56.047Z,99096.27
2019-04-11T09:59:29.538Z,99090.05
2019-04-11T10:02:02.482Z,99093.30
2019-04-11T10:04:33.906Z,99091.17
2019-04-11T10:07:13.156Z,99085.44
2019-04-11T10:09:52.651Z,99090.40
2019-04-11T10:12:40.469Z,99098.07
2019-04-11T10:15:09.429Z,99092.22
2019-04-11T10:17:42.533Z,99094.30
2019-04-11T10:20:18.600Z,99098.98
2019-04-11T10:22:56.275Z,99098.91
2019-04-11T10:25:30.232Z,99101.45
2019-04-11T10:28:04.831Z,99099.11
2019-04-11T10:30:41.957Z,99101.28
2019-04-11T10:33:12.980Z,99098.77
2019-04-11T10:35:48.867Z,99103.50
2019-04-11T10:38:18.785Z,99102.79
2019-04-11T10:41:01.180Z,99107.34
2019-04-11T10:43:32.098Z,99105.46
2019-04-11T10:46:11.291Z,99096.16
2019-04-11T10:48:46.675Z,99107.47
2019-04-11T10:51:19.096Z,99108.16
2019-04-11T10:53:49.236Z,99107.13
2019-04-11T10:56:26.745Z,99110.13
2019-04-11T10:58:55.588Z,99113.52
2019-04-11T11:01:28.509Z,99106.77
2019-04-11T11:04:15.746Z,99101.15
2019-04-11T11:06:46.608Z,99107.86
2019-04-11T11:09:20.217Z,99109.48
2019-04-11T11:12:06.223Z,99115.23
2019-04-11T11:14:42.877Z,99114.08
2019-04-11T11:17:17.529Z,99110.58
2019-04-11T11:20:08.908Z,99115.56
2019-04-11T11:22:42.975Z,99113.09
2019-04-11T11:25:30.862Z,99117.06
2019-04-11T11:28:00.239Z,99115.06
2019-04-11T11:30:39.912Z,99119.66
2019-04-11T11:33:10.904Z,99119.86
2019-04-11T11:35:50.031Z,99130.23
2019-04-11T11:38:24.151Z,99124.47
2019-04-11T11:41:00.455Z,99134.13
2019-04-11T11:43:30.932Z,99135.05
2019-04-11T11:46:19.338Z,99136.56
2019-04-11T11:48:53.733Z,99131.87
2019-04-11T11:51:27.012Z,99137.83
2019-04-11T11:54:11.509Z,99133.13
2019-04-11T11:56:42.471Z,99137.88
2019-04-11T11:59:19.705Z,99139.23
2019-04-11T12:01:52.371Z,99132.33
2019-04-11T12:04:37.839Z,99138.23
2019-04-11T12:07:08.718Z,99140.67
2019-04-11T12:09:38.616Z,99138.17
2019-04-11T12:12:08.586Z,99132.72
2019-04-11T12:14:46.395Z,99141.10
2019-04-11T12:17:25.414Z,99142.16
2019-04-11T12:20:12.603Z,99126.10
2019-04-11T12:22:40.134Z,99135.06
2019-04-11T12:25:10.640Z,99133.44
2019-04-11T12:27:50.103Z,99135.38
2019-04-11T12:30:23.477Z,99133.53
2019-04-11T12:32:55.131Z,99133.17
2019-04-11T12:35:33.684Z,99137.73
2019-04-11T12:38:13.313Z,99141.80
2019-04-11T12:40:43.268Z,99139.27
2019-04-11T12:43:13.146Z,99134.44
2019-04-11T12:45:49.471Z,99141.42
2019-04-11T12:48:18.291Z,99141.72
2019-04-11T12:51:04.389Z,99141.30
2019-04-11T12:53:32.640Z,99148.34
2019-04-11T12:56:11.581Z,99139.34
2019-04-11T12:58:44.270Z,99134.53
2019-04-11T13:01:20.391Z,99134.18
2019-04-11T13:04:07.262Z,99133.55
2019-04-11T13:06:49.871Z,99133.17
2019-04-11T13:09:25.397Z,99130.38
2019-04-11T13:12:01.089Z,99128.03
2019-04-11T13:14:49.108Z,99125.30
2019-04-11T13:17:25.572Z,99130.08
2019-04-11T13:20:04.799Z,99126.69
2019-04-11T13:22:33.173Z,99129.23
2019-04-11T13:25:19.393Z,99127.62
2019-04-11T13:27:55.477Z,99123.36
2019-04-11T13:30:41.479Z,99130.23
2019-04-11T13:33:11.391Z,99124.86
2019-04-11T13:35:41.281Z,99125.69
2019-04-11T13:38:20.377Z,99132.70
2019-04-11T13:41:02.251Z,99131.47
2019-04-11T13:43:32.934Z,99134.74
2019-04-11T13:46:21.635Z,99127.87
2019-04-11T13:49:03.305Z,99128.91
2019-04-11T13:51:33.770Z,99133.41
2019-04-11T13:54:19.791Z,99135.02
2019-04-11T13:57:06.246Z,99127.26
2019-04-11T13:59:36.135Z,99138.97
2019-04-11T14:02:08.918Z,99127.39
2019-04-11T14:04:47.922Z,99130.23
2019-04-11T14:07:21.271Z,99126.93
2019-04-11T14:09:55.262Z,99127.91
2019-04-11T14:12:26.344Z,99122.60
2019-04-11T14:14:56.061Z,99121.53
2019-04-11T14:17:44.286Z,99116.83
2019-04-11T14:20:14.181Z,99111.74
2019-04-11T14:22:44.134Z,99118.91
2019-04-11T14:25:30.196Z,99117.05
2019-04-11T14:28:09.425Z,99112.74
2019-04-11T14:30:39.587Z,99114.58
2019-04-11T14:33:08.137Z,99118.09
2019-04-11T14:35:40.722Z,99116.08
2019-04-11T14:38:16.590Z,99116.08
2019-04-11T14:41:02.661Z,99118.26
2019-04-11T14:43:46.472Z,99114.97
2019-04-11T14:46:36.508Z,99115.52
2019-04-11T14:49:05.616Z,99112.30
2019-04-11T14:51:34.651Z,99113.38
2019-04-11T14:54:18.267Z,99111.38
2019-04-11T14:56:54.167Z,99104.48
2019-04-11T14:59:30.089Z,99106.72
2019-04-11T15:02:01.285Z,99111.77
2019-04-11T15:04:47.962Z,99108.40
2019-04-11T15:07:18.088Z,99108.66
2019-04-11T15:09:53.510Z,99109.84
2019-04-11T15:12:32.431Z,99108.39
2019-04-11T15:15:19.287Z,99109.86
2019-04-11T15:17:49.092Z,99113.68
2019-04-11T15:20:19.011Z,99109.86
2019-04-11T15:22:48.899Z,99114.66
2019-04-11T15:25:35.734Z,99111.00
2019-04-11T15:28:21.882Z,99110.61
2019-04-11T15:30:51.802Z,99116.50
2019-04-11T15:33:21.700Z,99108.89
2019-04-11T15:35:51.614Z,99109.39
2019-04-11T15:38:38.235Z,99104.96
2019-04-11T15:41:08.088Z,99102.63
2019-04-11T15:43:50.058Z,99113.83
2019-04-11T15:46:20.747Z,99104.24
2019-04-11T15:49:19.669Z,99114.63
2019-04-11T15:51:39.288Z,99105.49
2019-04-11T15:54:09.843Z,99110.34
2019-04-11T15:56:55.713Z,99107.14
2019-04-11T15:59:38.578Z,99103.59
2019-04-11T16:02:17.274Z,99105.30
2019-04-11T16:04:47.162Z,99107.08
2019-04-11T16:07:37.402Z,99107.73
2019-04-11T16:10:06.661Z,99108.05
2019-04-11T16:12:36.576Z,99108.41
2019-04-11T16:15:14.021Z,99115.50
2019-04-11T16:17:44.645Z,99112.84
2019-04-11T16:20:17.829Z,99118.11
2019-04-11T16:25:33.823Z,99123.09
2019-04-11T16:28:21.884Z,99121.17
2019-04-11T16:30:52.026Z,99116.95
2019-04-11T16:33:30.757Z,99116.45
2019-04-11T16:36:00.645Z,99112.91
2019-04-11T16:38:40.460Z,99114.34
2019-04-11T16:41:25.427Z,99122.03
2019-04-11T16:43:55.431Z,99118.77
2019-04-11T16:46:41.496Z,99120.72
2019-04-11T16:49:10.113Z,99127.34
2019-04-11T16:51:38.364Z,99126.38
2019-04-11T16:54:09.617Z,99130.50
2019-04-11T16:56:36.619Z,99132.52
2019-04-11T16:59:04.895Z,99140.42
2019-04-11T17:01:33.138Z,99128.16
2019-04-11T17:04:01.416Z,99136.52
2019-04-11T17:06:47.707Z,99143.18
2019-04-11T17:09:32.925Z,99138.39
2019-04-11T17:12:01.246Z,99144.38
2019-04-11T17:14:33.021Z,99140.19
2019-04-11T17:17:00.848Z,99142.48
2019-04-11T17:19:29.529Z,99141.59
2019-04-11T17:21:57.785Z,99145.55
2019-04-11T17:24:26.064Z,99145.05
2019-04-11T17:26:54.884Z,99147.38
2019-04-11T17:29:24.928Z,99143.20
2019-04-11T17:31:56.034Z,99142.16
2019-04-11T17:34:24.338Z,99142.66
2019-04-11T17:36:52.589Z,99144.76
2019-04-11T17:39:20.871Z,99149.88
2019-04-11T17:41:49.175Z,99150.43
2019-04-11T17:44:17.448Z,99156.89
2019-04-11T17:46:45.703Z,99155.78
2019-04-11T17:49:14.041Z,99157.30
2019-04-11T17:51:42.882Z,99164.12
2019-04-11T17:54:12.349Z,99160.88
2019-04-11T17:56:40.599Z,99167.70
2019-04-11T17:59:08.866Z,99163.89
2019-04-11T18:01:38.007Z,99167.48
2019-04-11T18:04:08.815Z,99175.81
2019-04-11T18:06:36.931Z,99168.92
2019-04-11T18:09:10.171Z,99176.94
2019-04-11T18:11:38.632Z,99175.23
2019-04-11T18:14:07.153Z,99182.05
2019-04-11T18:16:37.607Z,99168.41
2019-04-11T18:19:06.626Z,99180.42
2019-04-11T18:21:37.147Z,99186.74
2019-04-11T18:24:05.563Z,99182.62
2019-04-11T18:26:36.475Z,99188.72
2019-04-11T18:29:04.790Z,99189.98
2019-04-11T18:31:34.432Z,99194.81
2019-04-11T18:34:02.738Z,99189.84
2019-04-11T18:36:32.046Z,99188.88
2019-04-11T18:39:05.609Z,99195.44
2019-04-11T18:41:31.765Z,99193.41
2019-04-11T18:44:00.001Z,99194.17
2019-04-11T18:46:30.434Z,99196.10
2019-04-11T18:48:58.046Z,99197.97
2019-04-11T18:51:26.328Z,99200.37
2019-04-11T18:53:54.579Z,99201.40
2019-04-11T18:56:24.108Z,99204.30
2019-04-11T18:58:52.835Z,99204.38
2019-04-11T19:01:21.380Z,99207.98
2019-04-11T19:03:50.295Z,99206.14
2019-04-11T19:08:47.728Z,99205.95
2019-04-11T19:11:16.462Z,99212.53
2019-04-11T19:13:47.609Z,99215.06
2019-04-11T19:16:16.868Z,99217.22
2019-04-11T19:18:47.829Z,99213.19
2019-04-11T19:21:20.052Z,99208.38
2019-04-11T19:23:45.621Z,99211.83
2019-04-11T19:26:15.205Z,99212.43
2019-04-11T19:28:43.487Z,99212.50
2019-04-11T19:31:12.410Z,99220.08
2019-04-11T19:33:40.900Z,99216.11
2019-04-11T19:36:10.102Z,99222.05
2019-04-11T19:38:42.961Z,99224.00
2019-04-11T19:41:10.551Z,99224.08
2019-04-11T19:43:40.795Z,99223.09
2019-04-11T19:46:09.358Z,99220.55
2019-04-11T19:48:38.396Z,99222.61
2019-04-11T19:51:07.416Z,99219.48
2019-04-11T19:53:35.684Z,99223.16
2019-04-11T19:56:06.001Z,99225.72
2019-04-11T19:58:33.708Z,99218.71
2019-04-11T20:01:01.972Z,99219.86
2019-04-11T20:03:31.786Z,99227.20
2019-04-11T20:06:00.171Z,99231.88
2019-04-11T20:08:28.706Z,99225.16
2019-04-11T20:11:01.085Z,99227.06
2019-04-11T20:13:27.533Z,99225.66
2019-04-11T20:15:56.555Z,99227.42
2019-04-11T20:18:24.800Z,99223.47
2019-04-11T20:20:53.125Z,99223.47
2019-04-11T20:23:21.392Z,99226.09
2019-04-11T20:25:50.075Z,99228.67
2019-04-11T20:28:20.836Z,99219.30
2019-04-11T20:30:49.264Z,99221.04
2019-04-11T20:33:26.581Z,99225.23
2019-04-11T20:35:47.845Z,99223.47
2019-04-11T20:38:16.757Z,99219.92
2019-04-11T20:40:45.135Z,99225.66
2019-04-11T20:43:13.397Z,99218.94
2019-04-11T20:45:42.933Z,99222.31
2019-04-11T20:48:11.182Z,99222.38
2019-04-11T20:50:39.454Z,99225.23
2019-04-11T20:53:12.857Z,99221.47
2019-04-11T20:55:39.353Z,99223.66
2019-04-11T20:58:10.289Z,99221.27
2019-04-11T21:00:49.445Z,99221.10
2019-04-11T21:03:08.832Z,99225.86
2019-04-11T21:05:37.098Z,99231.00
2019-04-11T21:08:05.359Z,99228.24
2019-04-11T21:10:34.039Z,99229.23
2019-04-11T21:13:06.916Z,99230.56
2019-04-11T21:15:32.931Z,99233.55
2019-04-11T21:18:01.174Z,99225.48
2019-04-11T21:20:30.021Z,99226.28
2019-04-11T21:22:58.836Z,99227.74
2019-04-11T21:25:28.565Z,99225.61
2019-04-11T21:27:59.158Z,99223.77
2019-04-11T21:30:27.944Z,99223.29
2019-04-11T21:32:57.044Z,99227.55
2019-04-11T21:35:25.317Z,99223.59
2019-04-11T21:37:53.559Z,99223.16
2019-04-11T21:40:21.823Z,99232.92
2019-04-11T21:42:50.074Z,99228.36
2019-04-11T21:45:18.353Z,99229.52
2019-04-11T21:47:46.600Z,99230.79
2019-04-11T21:50:14.873Z,99222.99
2019-04-11T21:52:44.224Z,99228.84
2019-04-11T21:55:15.208Z,99222.85
2019-04-11T21:57:42.575Z,99228.95
2019-04-11T22:00:17.314Z,99236.71
2019-04-11T22:02:45.559Z,99247.02
2019-04-11T22:05:13.829Z,99241.09
2019-04-11T22:07:42.082Z,99247.20
2019-04-11T22:10:11.121Z,99241.81
2019-04-11T22:12:40.067Z,99244.39
2019-04-11T22:15:11.768Z,99232.80
2019-04-11T22:17:39.360Z,99240.78
2019-04-11T22:20:07.632Z,99238.15
2019-04-11T22:22:35.883Z,99238.38
2019-04-11T22:25:05.693Z,99236.39
2019-04-11T22:27:33.938Z,99237.22
2019-04-11T22:30:03.048Z,99232.34
2019-04-11T22:32:31.369Z,99241.73
2019-04-11T22:34:59.898Z,99241.45
2019-04-11T22:37:30.118Z,99245.27
2019-04-11T22:40:01.816Z,99240.34
2019-04-11T22:42:28.304Z,99240.47
2019-04-11T22:44:57.320Z,99241.17
2019-04-11T22:47:25.592Z,99244.39
2019-04-11T22:49:53.912Z,99244.27
2019-04-11T22:52:22.183Z,99239.87
2019-04-11T22:54:50.430Z,99243.42
2019-04-11T22:57:18.705Z,99245.17
2019-04-11T22:59:47.541Z,99242.42
2019-04-11T23:02:17.665Z,99242.66
2019-04-11T23:04:47.133Z,99246.45
2019-04-11T23:07:17.786Z,99242.69
2019-04-11T23:09:48.576Z,99244.37
2019-04-11T23:12:16.092Z,99254.78
2019-04-11T23:14:45.799Z,99243.69
2019-04-11T23:17:14.817Z,99238.56
2019-04-11T23:19:44.159Z,99238.61
2019-04-11T23:22:13.019Z,99235.69
2019-04-11T23:24:41.267Z,99244.59
2019-04-11T23:27:10.309Z,99240.84
2019-04-11T23:29:41.289Z,99237.80
2019-04-11T23:32:09.562Z,99240.66
2019-04-11T23:34:37.812Z,99238.86
2019-04-11T23:37:06.087Z,99241.46
2019-04-11T23:39:34.326Z,99247.77
2019-04-11T23:42:03.163Z,99243.38
2019-04-11T23:44:31.412Z,99240.84
2019-04-11T23:46:59.681Z,99237.16
2019-04-11T23:49:27.923Z,99241.78
2019-04-11T23:51:56.534Z,99238.33
2019-04-11T23:54:29.007Z,99247.80
2019-04-11T23:57:00.564Z,99239.84
2019-04-11T23:59:31.778Z,99250.56
